createdAt,value
2018-01-20T00:00:12.726Z,94.51
2018-01-20T00:02:05.672Z,94.79
2018-01-20T00:03:05.684Z,94.98
2018-01-20T00:04:58.643Z,95.64
2018-01-20T00:05:58.681Z,94.79
2018-01-20T00:07:52.179Z,94.65
2018-01-20T00:08:52.101Z,94.84
2018-01-20T00:10:45.555Z,94.60
2018-01-20T00:11:45.570Z,94.65
2018-01-20T00:13:38.531Z,94.60
2018-01-20T00:14:38.525Z,94.74
2018-01-20T00:16:31.463Z,94.65
2018-01-20T00:17:31.483Z,94.74
2018-01-20T00:19:24.444Z,94.56
2018-01-20T00:20:24.438Z,94.56
2018-01-20T00:22:17.403Z,94.18
2018-01-20T00:23:17.391Z,93.89
2018-01-20T00:25:10.349Z,94.18
2018-01-20T00:26:10.344Z,94.18
2018-01-20T00:28:03.300Z,94.08
2018-01-20T00:29:03.292Z,94.18
2018-01-20T00:30:56.236Z,94.08
2018-01-20T00:31:56.253Z,94.08
2018-01-20T00:33:49.205Z,93.80
2018-01-20T00:34:49.202Z,93.99
2018-01-20T00:36:42.157Z,94.08
2018-01-20T00:37:42.162Z,93.99
2018-01-20T00:39:35.151Z,94.08
2018-01-20T00:40:35.110Z,94.18
2018-01-20T00:42:28.051Z,93.99
2018-01-20T00:43:28.067Z,94.08
2018-01-20T00:45:21.024Z,94.08
2018-01-20T00:46:21.019Z,94.37
2018-01-20T00:48:13.977Z,93.99
2018-01-20T00:49:13.982Z,93.99
2018-01-20T00:51:06.925Z,94.18
2018-01-20T00:52:06.941Z,93.99
2018-01-20T00:53:59.887Z,94.46
2018-01-20T00:54:59.883Z,94.08
2018-01-20T00:56:52.821Z,93.99
2018-01-20T00:57:52.843Z,94.08
2018-01-20T00:59:45.793Z,94.46
2018-01-20T01:00:45.788Z,94.56
2018-01-20T01:02:38.730Z,94.56
2018-01-20T01:03:38.745Z,93.99
2018-01-20T01:05:31.709Z,93.99
2018-01-20T01:06:31.698Z,94.08
2018-01-20T01:08:24.660Z,94.56
2018-01-20T01:09:24.658Z,94.08
2018-01-20T01:11:17.601Z,94.08
2018-01-20T01:12:17.605Z,94.18
2018-01-20T01:14:10.563Z,93.80
2018-01-20T01:15:10.561Z,93.80
2018-01-20T01:17:03.500Z,94.08
2018-01-20T01:18:03.514Z,93.80
2018-01-20T01:19:56.471Z,93.61
2018-01-20T01:20:56.468Z,93.61
2018-01-20T01:22:49.408Z,93.61
2018-01-20T01:23:49.422Z,93.99
2018-01-20T01:25:42.381Z,93.61
2018-01-20T01:26:42.378Z,93.42
2018-01-20T01:28:35.336Z,93.51
2018-01-20T01:29:35.331Z,93.42
2018-01-20T01:31:28.270Z,94.18
2018-01-20T01:32:28.285Z,93.80
2018-01-20T01:34:21.246Z,93.32
2018-01-20T01:35:21.239Z,93.61
2018-01-20T01:37:15.203Z,93.42
2018-01-20T01:38:15.217Z,93.42
2018-01-20T01:40:08.177Z,93.23
2018-01-20T01:41:08.171Z,93.04
2018-01-20T01:43:01.115Z,93.42
2018-01-20T01:44:01.125Z,93.51
2018-01-20T01:45:54.084Z,93.99
2018-01-20T01:46:54.080Z,93.89
2018-01-20T01:48:47.045Z,93.89
2018-01-20T01:49:47.032Z,94.18
2018-01-20T01:51:39.974Z,94.37
2018-01-20T01:52:39.988Z,94.18
2018-01-20T01:54:32.948Z,94.08
2018-01-20T01:55:32.942Z,94.65
2018-01-20T01:57:25.892Z,94.46
2018-01-20T01:58:25.899Z,94.65
2018-01-20T02:00:18.856Z,94.46
2018-01-20T02:01:18.851Z,94.56
2018-01-20T02:03:11.790Z,94.56
2018-01-20T02:04:11.808Z,94.56
2018-01-20T02:06:04.763Z,94.65
2018-01-20T02:07:04.781Z,94.37
2018-01-20T02:08:57.719Z,94.27
2018-01-20T02:09:57.717Z,94.46
2018-01-20T02:11:50.654Z,94.65
2018-01-20T02:12:50.669Z,94.56
2018-01-20T02:14:43.625Z,93.99
2018-01-20T02:15:43.621Z,94.46
2018-01-20T02:17:36.562Z,94.08
2018-01-20T02:18:36.576Z,94.08
2018-01-20T02:20:29.534Z,94.27
2018-01-20T02:21:29.531Z,94.08
2018-01-20T02:23:22.471Z,93.89
2018-01-20T02:24:22.484Z,93.80
2018-01-20T02:26:15.441Z,93.89
2018-01-20T02:27:15.437Z,93.80
2018-01-20T02:29:08.407Z,93.42
2018-01-20T02:30:08.393Z,93.99
2018-01-20T02:32:01.335Z,93.80
2018-01-20T02:33:01.349Z,93.70
2018-01-20T02:34:54.340Z,94.18
2018-01-20T02:35:54.302Z,93.89
2018-01-20T02:37:47.241Z,94.18
2018-01-20T02:38:47.255Z,93.99
2018-01-20T02:40:40.223Z,93.13
2018-01-20T02:41:40.209Z,93.70
2018-01-20T02:43:33.148Z,93.23
2018-01-20T02:44:33.163Z,93.51
2018-01-20T02:46:26.121Z,93.61
2018-01-20T02:47:26.120Z,93.32
2018-01-20T02:49:19.096Z,93.61
2018-01-20T02:50:19.073Z,93.51
2018-01-20T02:52:12.014Z,93.23
2018-01-20T02:53:12.028Z,92.94
2018-01-20T02:55:04.984Z,93.32
2018-01-20T02:56:04.980Z,93.42
2018-01-20T02:57:57.921Z,93.23
2018-01-20T02:58:57.936Z,93.23
2018-01-20T03:00:50.891Z,93.32
2018-01-20T03:01:50.889Z,92.94
2018-01-20T03:03:43.827Z,93.23
2018-01-20T03:04:43.842Z,93.04
2018-01-20T03:06:36.803Z,92.94
2018-01-20T03:07:36.796Z,93.04
2018-01-20T03:09:29.762Z,92.38
2018-01-20T03:10:29.750Z,92.47
2018-01-20T03:12:22.692Z,92.38
2018-01-20T03:13:22.707Z,92.47
2018-01-20T03:15:15.667Z,93.32
2018-01-20T03:16:15.661Z,93.23
2018-01-20T03:18:08.602Z,93.23
2018-01-20T03:19:08.612Z,93.32
2018-01-20T03:21:01.591Z,93.13
2018-01-20T03:22:01.569Z,93.13
2018-01-20T03:23:54.507Z,93.32
2018-01-20T03:24:54.523Z,93.32
2018-01-20T03:26:49.016Z,93.13
2018-01-20T03:27:49.012Z,93.13
2018-01-20T03:29:41.988Z,92.38
2018-01-20T03:30:41.965Z,93.13
2018-01-20T03:32:34.906Z,93.32
2018-01-20T03:33:34.926Z,93.04
2018-01-20T03:35:27.878Z,93.23
2018-01-20T03:36:27.877Z,93.42
2018-01-20T03:38:20.772Z,93.32
2018-01-20T03:39:20.791Z,94.08
2018-01-20T03:41:13.786Z,93.80
2018-01-20T03:42:13.784Z,93.80
2018-01-20T03:44:06.723Z,94.18
2018-01-20T03:45:06.737Z,94.27
2018-01-20T03:46:59.694Z,95.03
2018-01-20T03:47:59.691Z,94.46
2018-01-20T03:49:52.657Z,94.56
2018-01-20T03:50:52.645Z,94.65
2018-01-20T03:52:45.584Z,94.56
2018-01-20T03:53:45.600Z,94.74
2018-01-20T03:55:38.558Z,94.56
2018-01-20T03:56:38.555Z,94.65
2018-01-20T03:58:31.493Z,93.70
2018-01-20T03:59:31.508Z,94.18
2018-01-20T04:01:24.466Z,93.80
2018-01-20T04:02:24.462Z,93.89
2018-01-20T04:04:17.402Z,94.08
2018-01-20T04:05:17.419Z,93.80
2018-01-20T04:07:10.375Z,93.99
2018-01-20T04:08:10.373Z,94.08
2018-01-20T04:10:03.336Z,94.08
2018-01-20T04:11:03.327Z,94.08
2018-01-20T04:12:56.269Z,93.80
2018-01-20T04:13:56.277Z,94.37
2018-01-20T04:15:49.237Z,94.46
2018-01-20T04:16:49.235Z,94.93
2018-01-20T04:18:42.173Z,94.65
2018-01-20T04:19:42.188Z,94.56
2018-01-20T04:21:35.148Z,94.46
2018-01-20T04:22:35.145Z,94.93
2018-01-20T04:24:28.081Z,94.37
2018-01-20T04:25:28.096Z,94.46
2018-01-20T04:27:21.053Z,93.99
2018-01-20T04:28:21.050Z,93.99
2018-01-20T04:30:14.015Z,94.18
2018-01-20T04:31:14.008Z,94.08
2018-01-20T04:33:06.981Z,94.08
2018-01-20T04:34:06.975Z,94.18
2018-01-20T04:35:59.926Z,94.27
2018-01-20T04:36:59.912Z,93.70
2018-01-20T04:38:52.851Z,94.84
2018-01-20T04:39:52.866Z,94.65
2018-01-20T04:41:45.826Z,94.37
2018-01-20T04:42:45.823Z,94.84
2018-01-20T04:44:38.762Z,94.46
2018-01-20T04:45:38.777Z,94.56
2018-01-20T04:47:31.734Z,94.56
2018-01-20T04:48:31.730Z,94.37
2018-01-20T04:50:25.207Z,94.46
2018-01-20T04:51:25.199Z,94.56
2018-01-20T04:53:18.137Z,94.56
2018-01-20T04:54:18.149Z,94.56
2018-01-20T04:56:11.108Z,93.99
2018-01-20T04:57:11.103Z,94.65
2018-01-20T04:59:04.042Z,94.56
2018-01-20T05:00:04.057Z,93.89
2018-01-20T05:01:57.018Z,93.89
2018-01-20T05:02:57.029Z,94.18
2018-01-20T05:04:49.955Z,93.89
2018-01-20T05:05:49.970Z,94.56
2018-01-20T05:07:42.924Z,94.46
2018-01-20T05:08:42.919Z,94.56
2018-01-20T05:10:35.862Z,94.18
2018-01-20T05:11:35.877Z,94.46
2018-01-20T05:13:28.834Z,94.46
2018-01-20T05:14:28.829Z,94.74
2018-01-20T05:16:21.788Z,94.08
2018-01-20T05:17:21.785Z,94.08
2018-01-20T05:19:14.723Z,93.61
2018-01-20T05:20:14.739Z,93.51
2018-01-20T05:22:07.703Z,93.89
2018-01-20T05:23:07.716Z,94.08
2018-01-20T05:25:00.676Z,94.08
2018-01-20T05:26:00.646Z,94.08
2018-01-20T05:27:53.604Z,93.42
2018-01-20T05:28:53.599Z,93.70
2018-01-20T05:30:46.540Z,93.89
2018-01-20T05:31:46.559Z,94.08
2018-01-20T05:33:40.550Z,93.89
2018-01-20T05:34:40.533Z,94.08
2018-01-20T05:36:33.489Z,93.61
2018-01-20T05:37:33.487Z,93.99
2018-01-20T05:39:26.426Z,93.99
2018-01-20T05:40:26.441Z,93.61
2018-01-20T05:42:19.401Z,93.89
2018-01-20T05:43:19.397Z,93.23
2018-01-20T05:45:12.335Z,93.51
2018-01-20T05:46:12.350Z,93.80
2018-01-20T05:48:05.308Z,93.42
2018-01-20T05:49:05.303Z,93.42
2018-01-20T05:50:58.241Z,93.80
2018-01-20T05:51:58.257Z,93.80
2018-01-20T05:53:51.214Z,94.37
2018-01-20T05:54:51.264Z,94.08
2018-01-20T05:56:44.174Z,94.08
2018-01-20T05:57:44.165Z,94.08
2018-01-20T05:59:37.106Z,94.08
2018-01-20T06:00:37.154Z,93.99
2018-01-20T06:02:30.118Z,93.99
2018-01-20T06:03:30.074Z,93.80
2018-01-20T06:05:23.013Z,93.56
2018-01-20T06:06:23.032Z,94.04
2018-01-20T06:08:15.986Z,93.27
2018-01-20T06:09:16.010Z,93.37
2018-01-20T06:11:08.937Z,93.37
2018-01-20T06:12:08.955Z,93.65
2018-01-20T06:14:01.894Z,93.46
2018-01-20T06:15:01.891Z,93.65
2018-01-20T06:16:54.918Z,92.80
2018-01-20T06:17:54.844Z,92.99
2018-01-20T06:19:47.783Z,93.08
2018-01-20T06:20:47.898Z,92.61
2018-01-20T06:22:40.827Z,93.46
2018-01-20T06:23:40.852Z,92.94
2018-01-20T06:25:33.693Z,93.46
2018-01-20T06:26:33.724Z,93.46
2018-01-20T06:28:26.665Z,93.94
2018-01-20T06:29:26.665Z,93.42
2018-01-20T06:31:19.603Z,93.46
2018-01-20T06:32:19.616Z,93.75
2018-01-20T06:34:12.574Z,94.13
2018-01-20T06:35:12.569Z,93.84
2018-01-20T06:37:05.528Z,93.51
2018-01-20T06:38:05.524Z,94.23
2018-01-20T06:39:58.461Z,93.32
2018-01-20T06:40:58.478Z,93.42
2018-01-20T06:42:51.435Z,93.51
2018-01-20T06:43:51.431Z,93.51
2018-01-20T06:45:44.372Z,93.56
2018-01-20T06:46:44.387Z,94.08
2018-01-20T06:48:37.342Z,93.94
2018-01-20T06:49:37.339Z,94.13
2018-01-20T06:51:30.236Z,93.84
2018-01-20T06:52:30.251Z,93.94
2018-01-20T06:54:23.257Z,94.13
2018-01-20T06:55:23.252Z,93.42
2018-01-20T06:57:16.215Z,94.23
2018-01-20T06:58:16.201Z,94.08
2018-01-20T07:00:09.143Z,93.75
2018-01-20T07:01:09.157Z,93.94
2018-01-20T07:03:02.116Z,94.37
2018-01-20T07:04:02.112Z,94.08
2018-01-20T07:05:56.516Z,94.51
2018-01-20T07:06:56.532Z,94.08
2018-01-20T07:08:49.463Z,94.08
2018-01-20T07:09:49.454Z,94.18
2018-01-20T07:11:42.393Z,94.56
2018-01-20T07:12:42.434Z,94.56
2018-01-20T07:14:36.364Z,94.65
2018-01-20T07:15:36.361Z,94.56
2018-01-20T07:17:29.343Z,94.51
2018-01-20T07:18:29.341Z,94.51
2018-01-20T07:20:22.280Z,94.51
2018-01-20T07:21:22.293Z,94.60
2018-01-20T07:23:15.261Z,94.89
2018-01-20T07:24:15.248Z,94.60
2018-01-20T07:26:08.188Z,94.13
2018-01-20T07:27:08.203Z,94.42
2018-01-20T07:29:01.165Z,93.94
2018-01-20T07:30:01.157Z,93.84
2018-01-20T07:31:54.097Z,94.04
2018-01-20T07:32:54.115Z,94.04
2018-01-20T07:34:47.067Z,94.27
2018-01-20T07:35:47.065Z,94.42
2018-01-20T07:37:40.027Z,94.27
2018-01-20T07:38:40.021Z,94.23
2018-01-20T07:40:33.066Z,94.08
2018-01-20T07:41:33.082Z,94.18
2018-01-20T07:43:29.010Z,94.42
2018-01-20T07:44:29.002Z,94.13
2018-01-20T07:46:21.939Z,94.23
2018-01-20T07:47:21.955Z,94.23
2018-01-20T07:49:14.916Z,94.04
2018-01-20T07:50:14.909Z,93.94
2018-01-20T07:52:07.875Z,94.42
2018-01-20T07:53:07.879Z,93.84
2018-01-20T07:55:00.822Z,94.23
2018-01-20T07:56:00.817Z,94.04
2018-01-20T07:57:53.789Z,94.04
2018-01-20T07:58:53.787Z,94.51
2018-01-20T08:00:46.733Z,94.70
2018-01-20T08:01:46.725Z,94.60
2018-01-20T08:03:39.684Z,94.32
2018-01-20T08:04:39.678Z,94.70
2018-01-20T08:06:32.622Z,94.13
2018-01-20T08:07:32.635Z,94.23
2018-01-20T08:09:25.598Z,94.23
2018-01-20T08:10:25.589Z,94.13
2018-01-20T08:12:19.061Z,94.04
2018-01-20T08:13:19.059Z,94.04
2018-01-20T08:15:12.011Z,93.94
2018-01-20T08:16:12.008Z,93.94
2018-01-20T08:18:05.478Z,93.75
2018-01-20T08:19:05.480Z,93.46
2018-01-20T08:20:58.420Z,93.94
2018-01-20T08:21:58.435Z,93.46
2018-01-20T08:23:51.902Z,94.04
2018-01-20T08:24:51.905Z,93.84
2018-01-20T08:26:44.838Z,94.13
2018-01-20T08:27:44.853Z,94.13
2018-01-20T08:29:37.819Z,94.13
2018-01-20T08:30:37.802Z,93.46
2018-01-20T08:32:30.764Z,94.13
2018-01-20T08:33:30.757Z,93.94
2018-01-20T08:35:23.717Z,94.13
2018-01-20T08:36:23.714Z,93.46
2018-01-20T08:38:16.672Z,93.37
2018-01-20T08:39:16.665Z,93.65
2018-01-20T08:41:10.119Z,93.56
2018-01-20T08:42:10.132Z,93.65
2018-01-20T08:44:03.494Z,93.65
2018-01-20T08:45:03.491Z,93.56
2018-01-20T08:46:56.436Z,93.51
2018-01-20T08:47:56.462Z,92.66
2018-01-20T08:49:49.410Z,93.51
2018-01-20T08:50:49.406Z,92.85
2018-01-20T08:52:42.374Z,93.41
2018-01-20T08:53:42.360Z,92.47
2018-01-20T08:55:35.297Z,92.38
2018-01-20T08:56:35.316Z,92.57
2018-01-20T08:58:28.271Z,92.18
2018-01-20T08:59:28.270Z,92.09
2018-01-20T09:01:21.206Z,91.99
2018-01-20T09:02:21.272Z,92.28
2018-01-20T09:04:14.180Z,91.71
2018-01-20T09:05:14.180Z,91.99
2018-01-20T09:07:07.120Z,91.52
2018-01-20T09:08:07.137Z,91.71
2018-01-20T09:10:00.093Z,91.71
2018-01-20T09:11:00.085Z,91.80
2018-01-20T09:12:53.042Z,91.42
2018-01-20T09:13:53.038Z,91.61
2018-01-20T09:15:45.997Z,91.80
2018-01-20T09:16:45.991Z,92.28
2018-01-20T09:18:38.951Z,91.61
2018-01-20T09:19:38.947Z,91.61
2018-01-20T09:21:31.885Z,91.61
2018-01-20T09:22:31.908Z,91.61
2018-01-20T09:24:24.868Z,91.61
2018-01-20T09:25:24.857Z,91.61
2018-01-20T09:27:19.329Z,91.33
2018-01-20T09:28:19.345Z,91.61
2018-01-20T09:30:12.350Z,90.19
2018-01-20T09:31:12.301Z,90.19
2018-01-20T09:33:05.783Z,90.52
2018-01-20T09:34:05.881Z,90.43
2018-01-20T09:35:59.217Z,89.86
2018-01-20T09:36:59.232Z,89.62
2018-01-20T09:38:52.191Z,89.39
2018-01-20T09:39:52.187Z,89.20
2018-01-20T09:41:46.666Z,89.91
2018-01-20T09:42:46.679Z,89.53
2018-01-20T09:44:39.634Z,89.34
2018-01-20T09:45:39.632Z,89.25
2018-01-20T09:47:32.588Z,89.43
2018-01-20T09:48:32.603Z,89.53
2018-01-20T09:50:25.541Z,89.34
2018-01-20T09:51:25.546Z,89.43
2018-01-20T09:53:18.511Z,89.25
2018-01-20T09:54:18.495Z,89.25
2018-01-20T09:56:11.436Z,88.87
2018-01-20T09:57:11.475Z,88.96
2018-01-20T09:59:04.499Z,88.77
2018-01-20T10:00:04.494Z,88.77
2018-01-20T10:01:57.451Z,88.77
2018-01-20T10:02:57.460Z,88.96
2018-01-20T10:04:50.416Z,89.34
2018-01-20T10:05:50.414Z,89.72
2018-01-20T10:07:43.350Z,89.00
2018-01-20T10:08:43.368Z,89.39
2018-01-20T10:10:36.324Z,89.10
2018-01-20T10:11:36.323Z,88.81
2018-01-20T10:13:29.282Z,88.91
2018-01-20T10:14:29.277Z,88.24
2018-01-20T10:16:22.213Z,87.87
2018-01-20T10:17:22.231Z,86.54
2018-01-20T10:19:15.187Z,87.49
2018-01-20T10:20:15.184Z,87.20
2018-01-20T10:22:08.122Z,86.54
2018-01-20T10:23:08.140Z,87.58
2018-01-20T10:25:01.095Z,86.63
2018-01-20T10:26:01.456Z,86.91
2018-01-20T10:27:54.029Z,86.25
2018-01-20T10:28:54.047Z,86.72
2018-01-20T10:30:47.515Z,86.72
2018-01-20T10:31:47.513Z,86.91
2018-01-20T10:33:40.480Z,85.78
2018-01-20T10:34:40.467Z,85.97
2018-01-20T10:36:33.406Z,86.20
2018-01-20T10:37:33.423Z,85.82
2018-01-20T10:39:26.376Z,85.91
2018-01-20T10:40:26.388Z,86.01
2018-01-20T10:42:19.331Z,85.35
2018-01-20T10:43:19.348Z,85.16
2018-01-20T10:45:12.288Z,84.21
2018-01-20T10:46:12.287Z,83.92
2018-01-20T10:48:05.221Z,82.88
2018-01-20T10:49:05.241Z,83.16
2018-01-20T10:50:58.195Z,83.16
2018-01-20T10:51:58.192Z,83.16
2018-01-20T10:53:51.679Z,83.16
2018-01-20T10:54:51.659Z,83.07
2018-01-20T10:56:44.604Z,83.39
2018-01-20T10:57:44.613Z,83.36
2018-01-20T10:59:37.568Z,82.03
2018-01-20T11:00:37.567Z,81.84
2018-01-20T11:02:30.505Z,82.59
2018-01-20T11:03:30.522Z,81.74
2018-01-20T11:05:23.478Z,81.84
2018-01-20T11:06:23.475Z,81.74
2018-01-20T11:08:16.412Z,82.59
2018-01-20T11:09:16.430Z,82.59
2018-01-20T11:11:09.491Z,82.31
2018-01-20T11:12:09.399Z,82.97
2018-01-20T11:14:02.352Z,82.78
2018-01-20T11:15:02.336Z,82.50
2018-01-20T11:16:55.273Z,82.97
2018-01-20T11:17:55.291Z,82.50
2018-01-20T11:19:48.247Z,82.69
2018-01-20T11:20:48.245Z,82.88
2018-01-20T11:22:41.329Z,83.26
2018-01-20T11:23:42.248Z,82.88
2018-01-20T11:25:34.154Z,82.69
2018-01-20T11:26:34.153Z,83.11
2018-01-20T11:28:27.094Z,82.12
2018-01-20T11:29:27.109Z,81.55
2018-01-20T11:31:20.066Z,81.97
2018-01-20T11:32:20.067Z,82.73
2018-01-20T11:34:13.005Z,83.11
2018-01-20T11:35:13.019Z,81.68
2018-01-20T11:37:05.973Z,82.45
2018-01-20T11:38:05.974Z,82.26
2018-01-20T11:39:58.925Z,82.07
2018-01-20T11:40:58.929Z,82.07
2018-01-20T11:42:52.375Z,81.30
2018-01-20T11:43:52.391Z,80.93
2018-01-20T11:45:46.372Z,80.64
2018-01-20T11:46:46.373Z,80.74
2018-01-20T11:48:39.306Z,81.21
2018-01-20T11:49:39.362Z,81.40
2018-01-20T11:51:32.300Z,81.40
2018-01-20T11:52:32.298Z,80.83
2018-01-20T11:54:25.264Z,81.87
2018-01-20T11:55:25.235Z,81.87
2018-01-20T11:57:18.205Z,81.87
2018-01-20T11:58:18.191Z,81.59
2018-01-20T12:00:11.141Z,80.74
2018-01-20T12:01:11.143Z,80.83
2018-01-20T12:03:04.639Z,80.64
2018-01-20T12:04:04.611Z,80.83
2018-01-20T12:05:58.074Z,80.93
2018-01-20T12:06:58.080Z,80.74
2018-01-20T12:08:51.010Z,80.16
2018-01-20T12:09:51.034Z,80.07
2018-01-20T12:11:43.983Z,79.97
2018-01-20T12:12:43.983Z,79.41
2018-01-20T12:14:36.954Z,79.79
2018-01-20T12:15:36.955Z,79.41
2018-01-20T12:17:29.891Z,79.50
2018-01-20T12:18:29.891Z,79.31
2018-01-20T12:20:24.380Z,79.25
2018-01-20T12:21:24.381Z,79.63
2018-01-20T12:23:17.315Z,78.30
2018-01-20T12:24:17.336Z,78.30
2018-01-20T12:26:10.290Z,78.36
2018-01-20T12:27:10.290Z,78.36
2018-01-20T12:29:03.224Z,78.50
2018-01-20T12:30:03.247Z,78.69
2018-01-20T12:31:57.890Z,78.78
2018-01-20T12:32:57.749Z,78.40
2018-01-20T12:34:53.128Z,78.74
2018-01-20T12:35:53.091Z,77.89
2018-01-20T12:37:49.253Z,78.74
2018-01-20T12:38:49.273Z,78.88
2018-01-20T12:40:42.227Z,77.60
2018-01-20T12:41:42.234Z,78.08
2018-01-20T12:43:35.161Z,77.79
2018-01-20T12:44:35.183Z,77.55
2018-01-20T12:46:28.136Z,77.55
2018-01-20T12:47:28.135Z,78.08
2018-01-20T12:49:22.606Z,77.07
2018-01-20T12:50:22.625Z,77.79
2018-01-20T12:52:15.584Z,78.11
2018-01-20T12:53:15.583Z,77.60
2018-01-20T12:55:10.072Z,78.02
2018-01-20T12:56:10.069Z,77.79
2018-01-20T12:58:03.009Z,78.11
2018-01-20T12:59:03.024Z,77.55
2018-01-20T13:00:55.979Z,76.59
2018-01-20T13:01:55.977Z,77.22
2018-01-20T13:03:48.916Z,76.75
2018-01-20T13:04:48.932Z,77.07
2018-01-20T13:06:42.400Z,77.31
2018-01-20T13:07:42.397Z,77.64
2018-01-20T13:09:35.339Z,77.70
2018-01-20T13:10:35.352Z,77.22
2018-01-20T13:12:29.420Z,77.79
2018-01-20T13:13:29.473Z,77.41
2018-01-20T13:15:22.462Z,77.70
2018-01-20T13:16:22.391Z,78.45
2018-01-20T13:18:15.359Z,78.08
2018-01-20T13:19:15.342Z,78.27
2018-01-20T13:21:08.302Z,78.08
2018-01-20T13:22:08.305Z,77.98
2018-01-20T13:24:01.235Z,79.79
2018-01-20T13:25:01.273Z,79.41
2018-01-20T13:26:54.218Z,79.41
2018-01-20T13:27:54.218Z,78.93
2018-01-20T13:29:47.653Z,79.31
2018-01-20T13:30:47.672Z,79.41
2018-01-20T13:32:40.625Z,78.55
2018-01-20T13:33:40.622Z,78.74
2018-01-20T13:35:33.593Z,78.36
2018-01-20T13:36:33.599Z,78.36
2018-01-20T13:38:26.561Z,78.45
2018-01-20T13:39:26.591Z,78.83
2018-01-20T13:41:19.603Z,79.12
2018-01-20T13:42:19.602Z,79.69
2018-01-20T13:44:12.522Z,79.41
2018-01-20T13:45:12.540Z,79.22
2018-01-20T13:47:06.051Z,78.93
2018-01-20T13:48:06.049Z,79.79
2018-01-20T13:49:59.065Z,79.31
2018-01-20T13:50:59.081Z,79.31
2018-01-20T13:52:52.039Z,79.41
2018-01-20T13:53:52.042Z,79.50
2018-01-20T13:55:44.975Z,79.22
2018-01-20T13:56:44.973Z,79.31
2018-01-20T13:58:38.420Z,79.27
2018-01-20T13:59:38.443Z,79.27
2018-01-20T14:01:31.393Z,79.31
2018-01-20T14:02:31.391Z,79.55
2018-01-20T14:04:24.335Z,79.97
2018-01-20T14:05:24.349Z,79.94
2018-01-20T14:07:17.308Z,79.74
2018-01-20T14:08:17.305Z,79.55
2018-01-20T14:10:10.239Z,79.84
2018-01-20T14:11:10.256Z,79.65
2018-01-20T14:13:03.214Z,79.27
2018-01-20T14:14:03.212Z,78.70
2018-01-20T14:15:56.163Z,79.46
2018-01-20T14:16:56.181Z,79.46
2018-01-20T14:18:49.101Z,79.65
2018-01-20T14:19:49.118Z,79.55
2018-01-20T14:21:42.078Z,79.65
2018-01-20T14:22:42.072Z,80.13
2018-01-20T14:24:35.520Z,79.27
2018-01-20T14:25:35.535Z,80.03
2018-01-20T14:27:28.829Z,79.84
2018-01-20T14:28:28.727Z,79.84
2018-01-20T14:30:21.634Z,80.51
2018-01-20T14:31:21.665Z,79.94
2018-01-20T14:33:14.643Z,80.03
2018-01-20T14:34:14.605Z,80.22
2018-01-20T14:36:07.566Z,80.51
2018-01-20T14:37:07.567Z,80.27
2018-01-20T14:39:00.509Z,80.56
2018-01-20T14:40:00.548Z,80.75
2018-01-20T14:41:53.468Z,80.94
2018-01-20T14:42:53.584Z,81.41
2018-01-20T14:44:46.916Z,81.41
2018-01-20T14:45:46.932Z,81.13
2018-01-20T14:47:39.996Z,82.08
2018-01-20T14:48:39.967Z,81.51
2018-01-20T14:50:34.466Z,81.51
2018-01-20T14:51:34.480Z,81.51
2018-01-20T14:53:27.437Z,81.88
2018-01-20T14:54:27.433Z,81.79
2018-01-20T14:56:20.391Z,82.08
2018-01-20T14:57:20.389Z,82.08
2018-01-20T14:59:13.324Z,81.51
2018-01-20T15:00:13.343Z,81.51
2018-01-20T15:02:06.300Z,81.74
2018-01-20T15:03:06.297Z,81.17
2018-01-20T15:04:59.237Z,80.60
2018-01-20T15:05:59.263Z,80.79
2018-01-20T15:07:52.711Z,80.51
2018-01-20T15:08:52.208Z,80.41
2018-01-20T15:10:45.223Z,80.65
2018-01-20T15:11:45.239Z,80.65
2018-01-20T15:13:38.216Z,80.65
2018-01-20T15:14:38.216Z,81.23
2018-01-20T15:16:31.169Z,81.51
2018-01-20T15:17:31.169Z,81.51
2018-01-20T15:19:24.110Z,81.88
2018-01-20T15:20:24.126Z,82.17
2018-01-20T15:22:17.082Z,81.98
2018-01-20T15:23:17.079Z,82.27
2018-01-20T15:25:10.525Z,81.79
2018-01-20T15:26:10.544Z,82.65
2018-01-20T15:28:03.502Z,82.17
2018-01-20T15:29:03.497Z,82.55
2018-01-20T15:30:56.639Z,81.60
2018-01-20T15:31:56.451Z,81.88
2018-01-20T15:33:49.415Z,82.65
2018-01-20T15:34:49.415Z,82.36
2018-01-20T15:36:42.361Z,82.27
2018-01-20T15:37:42.359Z,81.88
2018-01-20T15:39:35.296Z,81.70
2018-01-20T15:40:35.313Z,82.65
2018-01-20T15:42:29.821Z,82.55
2018-01-20T15:43:30.155Z,82.65
2018-01-20T15:45:22.742Z,82.55
2018-01-20T15:46:22.756Z,82.36
2018-01-20T15:48:15.713Z,82.27
2018-01-20T15:49:15.711Z,82.65
2018-01-20T15:51:09.160Z,82.84
2018-01-20T15:52:09.177Z,82.65
2018-01-20T15:54:02.135Z,82.32
2018-01-20T15:55:02.133Z,82.51
2018-01-20T15:56:55.099Z,82.55
2018-01-20T15:57:55.084Z,82.74
2018-01-20T15:59:49.255Z,82.89
2018-01-20T16:00:49.270Z,82.79
2018-01-20T16:02:42.232Z,83.40
2018-01-20T16:03:42.222Z,82.93
2018-01-20T16:05:35.676Z,83.22
2018-01-20T16:06:35.688Z,82.84
2018-01-20T16:08:28.645Z,83.12
2018-01-20T16:09:28.641Z,82.60
2018-01-20T16:11:22.609Z,82.98
2018-01-20T16:12:22.624Z,83.03
2018-01-20T16:14:15.578Z,82.98
2018-01-20T16:15:15.572Z,82.27
2018-01-20T16:17:08.530Z,82.42
2018-01-20T16:18:08.528Z,82.42
2018-01-20T16:20:01.467Z,82.79
2018-01-20T16:21:01.485Z,83.22
2018-01-20T16:22:55.463Z,82.79
2018-01-20T16:23:55.459Z,82.98
2018-01-20T16:25:48.403Z,82.93
2018-01-20T16:26:48.414Z,83.22
2018-01-20T16:28:41.372Z,82.42
2018-01-20T16:29:41.370Z,82.60
2018-01-20T16:31:34.311Z,82.51
2018-01-20T16:32:34.330Z,82.98
2018-01-20T16:34:27.282Z,82.89
2018-01-20T16:35:27.278Z,83.36
2018-01-20T16:37:20.239Z,83.46
2018-01-20T16:38:20.233Z,83.36
2018-01-20T16:40:13.172Z,83.36
2018-01-20T16:41:13.186Z,82.79
2018-01-20T16:43:06.143Z,83.46
2018-01-20T16:44:06.139Z,83.74
2018-01-20T16:45:59.080Z,83.65
2018-01-20T16:46:59.093Z,83.65
2018-01-20T16:48:52.053Z,83.65
2018-01-20T16:49:52.048Z,83.65
2018-01-20T16:51:44.948Z,83.55
2018-01-20T16:52:44.964Z,83.74
2018-01-20T16:54:37.880Z,83.74
2018-01-20T16:55:37.878Z,84.50
2018-01-20T16:57:30.796Z,84.03
2018-01-20T16:58:30.793Z,83.84
2018-01-20T17:00:23.700Z,84.12
2018-01-20T17:01:23.708Z,84.12
2018-01-20T17:03:16.623Z,84.41
2018-01-20T17:04:16.619Z,84.78
2018-01-20T17:06:09.518Z,84.88
2018-01-20T17:07:09.534Z,84.69
2018-01-20T17:09:02.448Z,83.94
2018-01-20T17:10:02.445Z,84.50
2018-01-20T17:11:55.343Z,84.41
2018-01-20T17:12:55.358Z,84.98
2018-01-20T17:14:48.276Z,84.98
2018-01-20T17:15:48.269Z,84.69
2018-01-20T17:17:41.189Z,84.69
2018-01-20T17:18:41.182Z,84.59
2018-01-20T17:20:34.083Z,84.88
2018-01-20T17:21:34.097Z,84.41
2018-01-20T17:23:27.036Z,83.94
2018-01-20T17:24:27.034Z,84.31
2018-01-20T17:26:19.931Z,83.74
2018-01-20T17:27:19.948Z,83.94
2018-01-20T17:29:12.864Z,83.84
2018-01-20T17:30:12.859Z,83.46
2018-01-20T17:32:05.761Z,83.74
2018-01-20T17:33:05.778Z,83.55
2018-01-20T17:34:58.697Z,83.36
2018-01-20T17:35:58.694Z,83.55
2018-01-20T17:37:51.617Z,83.46
2018-01-20T17:38:51.614Z,83.55
2018-01-20T17:40:44.510Z,83.94
2018-01-20T17:41:44.524Z,83.55
2018-01-20T17:43:37.441Z,83.65
2018-01-20T17:44:37.437Z,83.69
2018-01-20T17:46:30.333Z,83.50
2018-01-20T17:47:30.349Z,83.59
2018-01-20T17:49:23.267Z,83.50
2018-01-20T17:50:23.265Z,83.03
2018-01-20T17:52:16.164Z,82.93
2018-01-20T17:53:16.178Z,83.03
2018-01-20T17:55:09.095Z,82.84
2018-01-20T17:56:09.091Z,82.93
2018-01-20T17:58:02.013Z,82.55
2018-01-20T17:59:02.010Z,82.74
2018-01-20T18:00:54.966Z,83.31
2018-01-20T18:01:54.981Z,83.22
2018-01-20T18:03:47.941Z,82.84
2018-01-20T18:04:47.945Z,82.84
2018-01-20T18:06:40.842Z,82.93
2018-01-20T18:07:40.861Z,83.03
2018-01-20T18:09:33.773Z,83.69
2018-01-20T18:10:33.773Z,83.40
2018-01-20T18:12:26.671Z,83.22
2018-01-20T18:13:26.688Z,83.55
2018-01-20T18:15:19.603Z,84.03
2018-01-20T18:16:19.599Z,84.22
2018-01-20T18:18:13.374Z,84.50
2018-01-20T18:19:13.373Z,84.59
2018-01-20T18:21:06.274Z,84.88
2018-01-20T18:22:06.289Z,84.78
2018-01-20T18:23:59.237Z,85.17
2018-01-20T18:24:59.228Z,85.17
2018-01-20T18:26:52.168Z,84.78
2018-01-20T18:27:52.181Z,85.17
2018-01-20T18:29:45.139Z,84.98
2018-01-20T18:30:45.135Z,84.88
2018-01-20T18:32:38.087Z,85.55
2018-01-20T18:33:38.103Z,85.17